Time;durP1;ratioP1;P1;durP2;ratioP2;P2;SDS_P1;SDS_P2;PMS_P1;PMS_P2;Temp;Humidity;BMP_temperature;BMP_pressure;BME280_temperature;BME280_humidity;BME280_pressure;Samples;Min_cycle;Max_cycle;Signal;HPM_P1;HPM_P2
2023/04/08 00:01:48;;;;;;;12.97;8.20;;;8.50;99.90;;;11.70;55.77;97875.34;5060757;28;20188;-48
2023/04/08 00:04:16;;;;;;;12.63;7.80;;;8.40;99.90;;;11.67;55.62;97889.00;5050751;28;20045;-47
2023/04/08 00:06:43;;;;;;;13.53;8.23;;;8.40;99.90;;;11.65;55.71;97885.66;5060640;28;20048;-50
2023/04/08 00:09:11;;;;;;;10.27;7.57;;;8.40;99.90;;;11.69;55.68;97885.19;5063296;28;20067;-45
2023/04/08 00:11:39;;;;;;;12.80;7.90;;;8.40;99.90;;;11.70;55.40;97889.50;5057190;28;20049;-45
2023/04/08 00:14:07;;;;;;;9.70;7.17;;;8.40;99.90;;;11.73;55.50;97878.53;5060849;28;20417;-51
2023/04/08 00:16:34;;;;;;;9.47;7.10;;;8.40;99.90;;;11.72;55.57;97887.50;5062294;28;20041;-49
2023/04/08 00:19:02;;;;;;;10.83;7.77;;;8.40;99.90;;;11.69;55.47;97892.34;5062186;28;20067;-48
2023/04/08 00:21:30;;;;;;;12.10;7.50;;;8.40;99.90;;;11.65;55.79;97891.84;5059075;28;20048;-50
2023/04/08 00:23:58;;;;;;;12.40;8.10;;;8.40;99.90;;;11.60;55.66;97884.31;5058867;28;20053;-47
2023/04/08 00:26:26;;;;;;;13.33;8.57;;;8.30;99.90;;;11.63;55.48;97888.47;5063596;28;20417;-48
2023/04/08 00:28:53;;;;;;;10.93;7.67;;;8.30;99.90;;;11.62;55.73;97884.16;5063174;28;20056;-49
2023/04/08 00:31:21;;;;;;;10.83;8.47;;;8.30;99.90;;;11.62;55.84;97892.16;5058576;28;20071;-50
2023/04/08 00:33:50;;;;;;;11.53;7.97;;;8.30;99.90;;;11.57;55.75;97890.00;5059435;28;20041;-49
2023/04/08 00:36:18;;;;;;;10.77;7.07;;;8.30;99.90;;;11.45;55.97;97882.44;5052030;28;20429;-47
2023/04/08 00:38:45;;;;;;;11.27;8.20;;;8.20;99.90;;;11.33;56.61;97888.03;5055782;28;20049;-46
2023/04/08 00:41:13;;;;;;;10.83;7.87;;;8.10;99.90;;;11.39;56.22;97889.25;5060799;28;20043;-47
2023/04/08 00:43:41;;;;;;;11.90;7.93;;;8.20;99.90;;;11.47;56.36;97891.09;5045069;28;20044;-45
2023/04/08 00:46:09;;;;;;;12.10;8.53;;;8.20;99.90;;;11.56;55.78;97895.47;5059614;28;20516;-48
2023/04/08 00:48:37;;;;;;;13.93;9.43;;;8.30;99.90;;;11.58;56.19;97896.97;5059643;28;20053;-48
2023/04/08 00:51:04;;;;;;;11.37;8.70;;;8.40;99.90;;;11.60;55.93;97892.31;5059606;28;20422;-47
2023/04/08 00:53:32;;;;;;;12.37;8.80;;;8.40;99.90;;;11.64;55.86;97898.16;5061415;28;20044;-46
2023/04/08 00:56:00;;;;;;;12.17;8.17;;;8.40;99.90;;;11.63;55.57;97896.47;5060689;28;20056;-49
2023/04/08 00:58:29;;;;;;;11.67;8.37;;;8.40;99.90;;;11.61;56.00;97901.16;5059547;28;20080;-49
2023/04/08 01:01:09;;;;;;;12.00;8.50;;;8.40;99.90;;;11.60;55.79;97897.66;5059746;28;20037;-47
2023/04/08 01:04:08;;;;;;;12.30;8.23;;;8.40;99.90;;;11.59;56.23;97901.31;5061460;28;20043;-47
2023/04/08 01:06:48;;;;;;;10.67;7.67;;;8.30;99.90;;;11.63;55.58;97897.34;5053766;28;20037;-47
2023/04/08 01:09:22;;;;;;;14.80;9.67;;;8.30;99.90;;;11.46;56.02;97895.59;5044594;28;20049;-48
2023/04/08 01:11:52;;;;;;;14.30;8.88;;;8.20;99.90;;;11.36;56.36;97893.06;5061246;28;20493;-46
2023/04/08 01:14:25;;;;;;;12.27;8.53;;;8.20;99.90;;;11.41;56.38;97896.06;5029990;28;20046;-45
2023/04/08 01:16:56;;;;;;;14.97;9.53;;;8.20;99.90;;;11.48;56.09;97898.94;5034758;28;20042;-47
2023/04/08 01:19:34;;;;;;;15.30;9.03;;;8.20;99.90;;;11.50;55.92;97891.63;5047468;28;20052;-49
2023/04/08 01:22:43;;;;;;;13.77;9.10;;;8.20;99.90;;;11.38;56.05;97896.41;5056667;28;20394;-51
2023/04/08 01:25:20;;;;;;;12.93;9.13;;;8.20;99.90;;;11.47;56.24;97896.44;5014066;28;20060;-46
2023/04/08 01:27:49;;;;;;;12.77;8.13;;;8.10;99.90;;;11.43;55.74;97896.75;5058149;28;20045;-49
2023/04/08 01:30:19;;;;;;;12.53;9.23;;;8.20;99.90;;;11.40;56.13;97890.94;5061773;28;20044;-48
2023/04/08 01:32:47;;;;;;;15.47;9.97;;;8.10;99.90;;;11.38;56.19;97891.09;5061145;28;20055;-48
2023/04/08 01:35:15;;;;;;;14.83;9.20;;;8.10;99.90;;;11.39;56.30;97887.41;5041762;28;20162;-49
2023/04/08 01:37:45;;;;;;;15.33;10.03;;;8.10;99.90;;;11.40;56.03;97894.41;5059203;28;20414;-49
2023/04/08 01:40:14;;;;;;;15.97;10.73;;;8.10;99.90;;;11.41;56.10;97895.25;5059737;28;20041;-45
2023/04/08 01:42:43;;;;;;;13.57;8.73;;;8.10;99.90;;;11.36;56.50;97893.06;5043151;28;20402;-51
2023/04/08 01:45:13;;;;;;;14.97;10.57;;;8.10;99.90;;;11.34;56.24;97887.06;5042517;28;20409;-48
2023/04/08 01:47:43;;;;;;;15.63;9.93;;;8.10;99.90;;;11.36;56.25;97893.06;5037354;28;20057;-51
2023/04/08 01:50:12;;;;;;;15.40;9.37;;;8.10;99.90;;;11.34;56.47;97884.41;5059617;28;20422;-50
2023/04/08 01:52:42;;;;;;;13.47;9.77;;;8.10;99.90;;;11.34;56.07;97891.53;5060725;28;20044;-51
2023/04/08 01:55:12;;;;;;;15.77;9.77;;;8.00;99.90;;;11.36;56.34;97884.22;5058118;28;20539;-49
2023/04/08 01:57:43;;;;;;;15.73;10.77;;;8.00;99.90;;;11.31;56.62;97883.88;5032882;28;20053;-48
2023/04/08 02:00:13;;;;;;;16.40;11.33;;;8.00;99.90;;;11.30;56.15;97885.72;5051642;28;20049;-50
2023/04/08 02:02:47;;;;;;;17.53;9.93;;;8.00;99.90;;;11.28;56.39;97887.69;5062989;28;20056;-47
2023/04/08 02:05:16;;;;;;;14.97;10.00;;;8.00;99.90;;;11.27;56.06;97888.69;5041029;28;20041;-50
2023/04/08 02:07:45;;;;;;;13.40;9.97;;;7.90;99.90;;;11.23;56.46;97887.34;5053823;28;20052;-51
2023/04/08 02:10:13;;;;;;;15.53;9.90;;;7.90;99.90;;;11.21;55.97;97887.50;5058378;28;20049;-49
2023/04/08 02:12:42;;;;;;;15.70;10.27;;;7.90;99.90;;;11.14;56.61;97882.97;5062019;28;20045;-48
2023/04/08 02:15:11;;;;;;;14.63;10.80;;;7.80;99.90;;;11.07;56.43;97885.44;5058644;28;20059;-49
2023/04/08 02:17:50;;;;;;;16.97;10.13;;;7.80;99.90;;;10.97;56.74;97884.69;5059793;28;20041;-49
2023/04/08 02:20:32;;;;;;;19.13;11.60;;;7.70;99.90;;;10.96;56.91;97875.88;5065326;28;20035;-51
2023/04/08 02:23:16;;;;;;;17.77;10.90;;;7.60;99.90;;;10.95;56.74;97879.56;5063636;28;20048;-48
2023/04/08 02:25:46;;;;;;;16.33;9.90;;;7.60;99.90;;;10.94;56.60;97885.84;5061610;28;20044;-51
2023/04/08 02:28:16;;;;;;;15.37;10.50;;;7.60;99.90;;;10.91;56.26;97885.34;5063321;28;20049;-49
2023/04/08 02:30:55;;;;;;;20.63;10.67;;;7.60;99.90;;;10.82;56.64;97882.63;5064684;28;20417;-48
2023/04/08 02:33:23;;;;;;;17.97;10.67;;;7.50;99.90;;;10.73;56.87;97885.38;5060819;28;20413;-50
2023/04/08 02:35:54;;;;;;;17.83;12.07;;;7.40;99.90;;;10.70;56.84;97888.34;5041232;28;20057;-48
2023/04/08 02:38:23;;;;;;;19.87;11.03;;;7.40;99.90;;;10.67;56.30;97886.03;5051817;28;20041;-47
2023/04/08 02:40:51;;;;;;;20.83;11.17;;;7.40;99.90;;;10.66;56.69;97893.16;5060904;28;20418;-50
2023/04/08 02:43:18;;;;;;;19.90;11.57;;;7.40;99.90;;;10.61;56.76;97890.97;5063393;28;20045;-47
2023/04/08 02:45:46;;;;;;;17.90;10.80;;;7.30;99.90;;;10.64;56.55;97893.34;5065633;28;20517;-49
2023/04/08 02:48:15;;;;;;;21.27;11.57;;;7.40;99.90;;;10.68;56.67;97893.00;5062149;28;20052;-47
2023/04/08 02:50:42;;;;;;;25.00;12.37;;;7.40;99.90;;;10.73;56.78;97888.06;5061987;28;20045;-47
2023/04/08 02:53:10;;;;;;;18.60;11.73;;;7.40;99.90;;;10.75;56.44;97889.56;5061818;28;20064;-48
2023/04/08 02:55:38;;;;;;;21.50;11.20;;;7.40;99.90;;;10.78;56.52;97888.44;5063707;28;20060;-50
2023/04/08 02:58:06;;;;;;;17.33;10.63;;;7.50;99.90;;;10.80;56.52;97892.59;5064375;28;20041;-49
2023/04/08 03:00:34;;;;;;;17.53;10.83;;;7.50;99.90;;;10.84;56.03;97887.81;5061935;28;20037;-44
2023/04/08 03:03:01;;;;;;;19.73;11.77;;;7.50;99.90;;;10.87;56.46;97887.47;5061442;28;20045;-50
2023/04/08 03:05:29;;;;;;;19.13;11.00;;;7.50;99.90;;;10.89;56.53;97887.31;5064667;28;20036;-45
2023/04/08 03:07:57;;;;;;;18.30;10.63;;;7.60;99.90;;;10.91;56.07;97891.47;5065191;28;20071;-45
2023/04/08 03:10:25;;;;;;;19.20;11.60;;;7.60;99.90;;;10.92;56.21;97882.50;5060587;28;20045;-51
2023/04/08 03:12:52;;;;;;;17.20;10.83;;;7.60;99.90;;;10.95;56.06;97887.53;5059326;28;20064;-52
2023/04/08 03:15:20;;;;;;;17.50;11.03;;;7.60;99.90;;;10.96;55.76;97888.38;5063928;28;20055;-47
2023/04/08 03:17:47;;;;;;;18.73;11.03;;;7.60;99.90;;;10.94;56.05;97879.69;5064994;28;20096;-44
2023/04/08 03:20:15;;;;;;;21.13;11.87;;;7.60;99.90;;;10.90;56.00;97889.84;5063056;28;20049;-47
2023/04/08 03:22:43;;;;;;;18.70;11.07;;;7.50;99.90;;;10.89;56.35;97885.47;5061400;28;20048;-47
2023/04/08 03:25:10;;;;;;;16.20;10.77;;;7.50;99.90;;;10.89;56.35;97890.81;5062191;28;20052;-52
2023/04/08 03:27:38;;;;;;;17.17;10.27;;;7.50;99.90;;;10.87;56.55;97889.31;5064506;28;20044;-50
2023/04/08 03:30:06;;;;;;;19.67;12.20;;;7.50;99.90;;;10.81;56.58;97894.25;5063387;28;20048;-50
2023/04/08 03:32:34;;;;;;;19.80;12.13;;;7.50;99.90;;;10.76;56.90;97888.59;5061250;28;20037;-48
2023/04/08 03:35:03;;;;;;;25.10;14.63;;;7.50;99.90;;;10.73;56.96;97904.03;5060895;28;20418;-47
2023/04/08 03:37:31;;;;;;;17.63;10.70;;;7.40;99.90;;;10.75;56.93;97900.22;5053753;28;20403;-48
2023/04/08 03:39:58;;;;;;;18.67;10.17;;;7.40;99.90;;;10.69;56.85;97903.50;5057090;28;20525;-45
2023/04/08 03:42:26;;;;;;;24.23;12.00;;;7.40;99.90;;;10.72;56.74;97892.56;5064179;28;20497;-46
2023/04/08 03:44:54;;;;;;;20.30;11.20;;;7.40;99.90;;;10.75;56.95;97910.03;5064423;28;20044;-47
2023/04/08 03:47:21;;;;;;;18.70;10.57;;;7.50;99.90;;;10.71;57.08;97901.53;5061669;28;20047;-48
2023/04/08 03:49:51;;;;;;;16.30;10.53;;;7.40;99.90;;;10.69;57.43;97895.50;5060969;28;20045;-47
2023/04/08 03:52:19;;;;;;;19.13;11.33;;;7.40;99.90;;;10.68;57.29;97907.13;5061827;28;20052;-51
2023/04/08 03:54:46;;;;;;;19.10;11.73;;;7.40;99.90;;;10.79;57.26;97901.56;5063896;28;20052;-48
2023/04/08 03:57:14;;;;;;;19.87;11.17;;;7.50;99.90;;;10.79;57.34;97895.41;5061366;28;20044;-50
2023/04/08 03:59:42;;;;;;;21.47;12.57;;;7.50;99.90;;;10.82;56.81;97903.09;5060815;28;20049;-47
2023/04/08 04:02:09;;;;;;;17.27;11.47;;;7.60;99.90;;;10.81;57.04;97896.91;5061373;28;20041;-51
2023/04/08 04:04:37;;;;;;;20.33;12.83;;;7.60;99.90;;;10.82;57.12;97901.28;5063818;28;20386;-47
2023/04/08 04:07:05;;;;;;;22.17;14.23;;;7.60;99.90;;;10.78;57.03;97894.59;5062483;28;20067;-47
2023/04/08 04:09:32;;;;;;;21.23;14.70;;;7.60;99.90;;;10.83;57.27;97894.94;5060526;28;20045;-46
2023/04/08 04:12:00;;;;;;;21.23;11.90;;;7.60;99.90;;;10.80;57.22;97897.09;5060336;28;20045;-50
2023/04/08 04:14:28;;;;;;;20.57;12.57;;;7.60;99.90;;;10.87;57.42;97897.28;5063349;28;20044;-47
2023/04/08 04:16:55;;;;;;;20.90;12.67;;;7.60;99.90;;;10.90;57.15;97891.66;5063681;28;20045;-50
2023/04/08 04:19:23;;;;;;;20.37;12.20;;;7.60;99.90;;;10.90;57.30;97904.97;5061271;28;20497;-50
2023/04/08 04:21:51;;;;;;;19.73;13.53;;;7.60;99.90;;;10.83;57.26;97897.59;5060021;28;20048;-50
2023/04/08 04:24:18;;;;;;;22.90;12.37;;;7.60;99.90;;;10.81;57.09;97898.75;5061731;28;20049;-47
2023/04/08 04:26:46;;;;;;;22.97;13.73;;;7.50;99.90;;;10.84;57.22;97906.44;5063193;28;20127;-47
2023/04/08 04:29:14;;;;;;;22.53;13.17;;;7.50;99.90;;;10.75;57.47;97902.88;5062281;28;20051;-47
2023/04/08 04:31:41;;;;;;;20.07;11.80;;;7.50;99.90;;;10.69;57.30;97903.50;5059992;28;20433;-45
2023/04/08 04:34:09;;;;;;;23.27;14.43;;;7.40;99.90;;;10.63;57.63;97904.97;5060183;28;20049;-48
2023/04/08 04:36:36;;;;;;;23.80;13.77;;;7.40;99.90;;;10.56;57.55;97903.06;5063480;28;20044;-47
2023/04/08 04:39:04;;;;;;;21.50;13.63;;;7.30;99.90;;;10.47;58.06;97907.50;5063385;28;20040;-49
2023/04/08 04:41:34;;;;;;;19.13;13.07;;;7.30;99.90;;;10.49;57.79;97902.88;5051075;28;20053;-47
2023/04/08 04:44:01;;;;;;;22.50;13.17;;;7.20;99.90;;;10.46;57.93;97907.66;5059463;28;20045;-47
2023/04/08 04:46:29;;;;;;;22.73;15.23;;;7.20;99.90;;;10.51;57.74;97911.53;5062980;28;20040;-48
2023/04/08 04:48:57;;;;;;;22.77;13.50;;;7.30;99.90;;;10.52;57.93;97907.84;5063417;28;20051;-47
2023/04/08 04:51:25;;;;;;;22.47;14.90;;;7.30;99.90;;;10.53;57.84;97909.53;5060759;28;20059;-48
2023/04/08 04:53:53;;;;;;;19.40;12.60;;;7.30;99.90;;;10.54;57.67;97907.72;5059274;28;20093;-49
2023/04/08 04:56:20;;;;;;;22.53;13.50;;;7.30;99.90;;;10.39;58.08;97915.41;5061410;28;20049;-50
2023/04/08 04:58:48;;;;;;;20.23;12.10;;;7.20;99.90;;;10.47;57.72;97923.47;5063219;28;20040;-45
2023/04/08 05:01:16;;;;;;;25.47;13.70;;;7.20;99.90;;;10.50;57.97;97927.66;5061751;28;20417;-49
2023/04/08 05:03:44;;;;;;;21.87;13.50;;;7.30;99.90;;;10.46;58.10;97928.94;5059075;28;20041;-48
2023/04/08 05:06:11;;;;;;;24.10;14.07;;;7.20;99.90;;;10.42;58.09;97929.25;5060205;28;20413;-49
2023/04/08 05:08:39;;;;;;;22.23;13.83;;;7.20;99.90;;;10.48;57.55;97927.78;5063238;28;20048;-47
2023/04/08 05:11:10;;;;;;;21.87;13.13;;;7.20;99.90;;;10.46;57.59;97929.78;5060690;28;20059;-48
2023/04/08 05:13:38;;;;;;;21.67;13.00;;;7.20;99.90;;;10.42;57.95;97934.56;5051139;28;20045;-46
2023/04/08 05:16:05;;;;;;;27.40;15.60;;;7.20;99.90;;;10.42;57.85;97931.91;5059281;28;20045;-50
2023/04/08 05:18:33;;;;;;;19.30;13.37;;;7.20;99.90;;;10.29;58.35;97935.91;5061663;28;20413;-50
2023/04/08 05:21:01;;;;;;;21.93;13.03;;;7.10;99.90;;;10.34;58.00;97933.66;5062735;28;20055;-48
2023/04/08 05:23:29;;;;;;;23.40;13.87;;;7.10;99.90;;;10.35;57.95;97938.00;5058191;28;20507;-46
2023/04/08 05:25:56;;;;;;;21.80;12.57;;;7.10;99.90;;;10.28;58.17;97944.91;5059388;28;20426;-45
2023/04/08 05:28:24;;;;;;;24.63;14.83;;;7.00;99.90;;;10.30;58.36;97942.91;5061113;28;20075;-46
2023/04/08 05:30:53;;;;;;;21.90;14.93;;;7.00;99.90;;;10.29;58.45;97942.06;5062667;28;20111;-48
2023/04/08 05:33:20;;;;;;;20.73;13.00;;;7.00;99.90;;;10.38;58.31;97943.03;5060409;28;20040;-48
2023/04/08 05:35:48;;;;;;;24.83;14.30;;;7.10;99.90;;;10.38;58.22;97951.00;5059104;28;20409;-46
2023/04/08 05:38:16;;;;;;;20.67;14.13;;;7.20;99.90;;;10.43;58.36;97946.91;5058905;28;20064;-46
2023/04/08 05:40:43;;;;;;;22.80;13.77;;;7.30;99.90;;;10.54;57.97;97950.31;5062575;28;20485;-48
2023/04/08 05:43:11;;;;;;;25.43;13.90;;;7.30;99.90;;;10.47;58.15;97955.41;5060996;28;20498;-47
2023/04/08 05:45:39;;;;;;;23.00;13.53;;;7.20;99.90;;;10.50;58.12;97954.28;5059067;28;20391;-48
2023/04/08 05:48:06;;;;;;;20.80;12.90;;;7.20;99.90;;;10.43;58.46;97957.53;5057999;28;20430;-46
2023/04/08 05:50:35;;;;;;;22.47;14.27;;;7.20;99.90;;;10.53;58.07;97964.63;5062084;28;20041;-47
2023/04/08 05:53:02;;;;;;;23.50;13.63;;;7.30;99.90;;;10.64;57.98;97964.34;5064895;28;20059;-48
2023/04/08 05:55:30;;;;;;;22.57;15.37;;;7.40;99.90;;;10.65;57.95;97963.38;5064969;28;20429;-48
2023/04/08 05:57:57;;;;;;;24.23;13.10;;;7.40;99.90;;;10.60;58.16;97963.00;5066522;28;20436;-49
2023/04/08 06:00:25;;;;;;;23.03;13.87;;;7.40;99.90;;;10.62;58.28;97969.88;5064403;28;20528;-49
2023/04/08 06:02:53;;;;;;;23.30;13.83;;;7.40;99.90;;;10.67;58.32;97964.06;5062702;28;20056;-50
2023/04/08 06:05:21;;;;;;;23.47;13.83;;;7.40;99.90;;;10.68;58.18;97971.03;5044009;28;20050;-46
2023/04/08 06:07:48;;;;;;;23.97;13.97;;;7.40;99.90;;;10.53;58.21;97969.94;5064264;28;20049;-46
2023/04/08 06:10:16;;;;;;;22.20;14.93;;;7.40;99.90;;;10.45;58.46;97965.38;5065029;28;20045;-47
2023/04/08 06:12:44;;;;;;;25.30;13.80;;;7.30;99.90;;;10.58;58.29;97972.97;5062789;28;20421;-50
2023/04/08 06:15:11;;;;;;;22.60;13.27;;;7.30;99.90;;;10.55;58.66;97978.63;5062814;28;20048;-48
2023/04/08 06:17:39;;;;;;;22.93;14.20;;;7.30;99.90;;;10.59;58.26;97983.47;5066171;28;20044;-46
2023/04/08 06:20:10;;;;;;;19.07;12.63;;;7.40;99.90;;;10.60;58.52;97987.81;5065859;28;20049;-47
2023/04/08 06:22:37;;;;;;;23.80;12.73;;;7.40;99.90;;;10.64;58.75;97988.31;5054463;28;20045;-46
2023/04/08 06:25:05;;;;;;;23.53;14.70;;;7.40;99.90;;;10.66;58.35;97991.66;5062111;28;20045;-49
2023/04/08 06:27:33;;;;;;;21.67;13.23;;;7.50;99.90;;;10.74;58.31;97988.25;5065492;28;20048;-51
2023/04/08 06:30:01;;;;;;;22.50;13.63;;;7.60;99.90;;;10.80;58.54;97991.13;5066011;28;20052;-49
2023/04/08 06:32:28;;;;;;;25.23;14.50;;;7.60;99.90;;;10.82;58.38;97994.47;5065690;28;20040;-47
2023/04/08 06:34:56;;;;;;;23.03;14.13;;;7.70;99.90;;;10.85;57.99;97993.31;5063483;28;20053;-50
2023/04/08 06:37:23;;;;;;;22.47;12.10;;;7.60;99.90;;;10.54;58.95;97995.56;5064293;28;20056;-49
2023/04/08 06:39:51;;;;;;;24.07;13.17;;;7.40;99.90;;;10.47;59.08;97997.16;5062805;28;20044;-52
2023/04/08 06:42:18;;;;;;;26.50;14.13;;;7.40;99.90;;;10.59;59.06;97995.94;5063843;28;20052;-47
2023/04/08 06:45:06;;;;;;;24.00;12.93;;;7.40;99.90;;;10.76;58.67;98000.44;5060536;28;20049;-49
2023/04/08 06:47:34;;;;;;;19.57;12.87;;;7.60;99.90;;;10.75;58.66;98000.56;5065103;28;20044;-46
2023/04/08 06:50:01;;;;;;;23.67;13.83;;;7.60;99.90;;;10.76;58.55;98000.44;5065102;28;20059;-48
2023/04/08 06:52:29;;;;;;;20.43;12.23;;;7.60;99.90;;;10.53;59.09;98001.91;5061792;28;20051;-49
2023/04/08 06:54:56;;;;;;;22.83;14.27;;;7.50;99.90;;;10.68;58.70;97997.66;5061825;28;20049;-47
2023/04/08 06:57:24;;;;;;;21.80;13.07;;;7.60;99.90;;;10.77;58.75;98009.25;5063379;28;20049;-48
2023/04/08 06:59:52;;;;;;;22.70;12.90;;;7.60;99.90;;;10.87;58.65;98010.00;5065397;28;20056;-47
2023/04/08 07:02:20;;;;;;;19.90;13.07;;;7.70;99.90;;;10.78;58.83;98008.28;5064221;28;20421;-51
2023/04/08 07:04:48;;;;;;;23.53;11.97;;;7.70;99.90;;;10.85;58.73;98009.31;5059720;28;20049;-49
2023/04/08 07:07:16;;;;;;;20.20;12.83;;;7.70;99.90;;;10.97;58.17;98016.09;5060786;28;20049;-50
2023/04/08 07:09:45;;;;;;;19.70;13.07;;;7.80;99.90;;;10.97;58.13;98017.88;5065248;28;20041;-49
2023/04/08 07:12:12;;;;;;;20.00;12.47;;;7.80;99.90;;;10.99;58.01;98023.91;5057442;28;20049;-47
2023/04/08 07:14:40;;;;;;;23.33;13.17;;;7.80;99.90;;;11.03;58.07;98025.25;5064628;28;20032;-48
2023/04/08 07:17:08;;;;;;;16.77;11.67;;;7.90;99.90;;;11.15;57.76;98021.38;5064798;28;20045;-48
2023/04/08 07:19:36;;;;;;;19.97;11.83;;;7.90;99.90;;;11.17;57.95;98019.38;5062191;28;20045;-44
2023/04/08 07:22:03;;;;;;;19.43;11.87;;;8.00;99.90;;;11.24;57.91;98024.91;5061464;28;20040;-51
2023/04/08 07:24:31;;;;;;;20.47;12.37;;;8.10;99.90;;;11.26;57.93;98024.78;5063078;28;20041;-47
2023/04/08 07:26:59;;;;;;;16.27;11.17;;;8.20;99.90;;;11.36;57.70;98023.69;5064964;28;20037;-46
2023/04/08 07:29:26;;;;;;;18.90;11.40;;;8.20;99.90;;;11.47;57.16;98027.91;5063263;28;20104;-48
2023/04/08 07:31:54;;;;;;;19.70;12.07;;;8.30;99.90;;;11.56;57.21;98029.63;5061417;28;20072;-45
2023/04/08 07:34:21;;;;;;;18.73;11.93;;;8.40;99.90;;;11.51;57.37;98031.09;5061823;28;20049;-46
2023/04/08 07:36:49;;;;;;;19.53;11.93;;;8.30;99.90;;;11.57;57.10;98028.66;5065172;28;20067;-46
2023/04/08 07:39:17;;;;;;;17.67;12.23;;;8.40;99.90;;;11.47;57.24;98021.75;5062763;28;20060;-49
2023/04/08 07:41:44;;;;;;;19.47;11.73;;;8.40;99.90;;;11.48;56.95;98018.91;5059251;28;20045;-48
2023/04/08 07:44:15;;;;;;;18.03;10.43;;;8.30;99.90;;;11.62;57.15;98026.31;5060570;28;20045;-48
2023/04/08 07:46:45;;;;;;;17.40;10.73;;;8.40;99.90;;;11.80;56.69;98036.09;5053050;28;20052;-46
2023/04/08 07:49:12;;;;;;;16.73;11.60;;;8.60;99.90;;;11.97;56.49;98035.19;5059543;28;20049;-47
2023/04/08 07:51:40;;;;;;;16.43;11.00;;;8.70;99.90;;;11.98;55.88;98036.00;5064172;28;20547;-47
2023/04/08 07:54:10;;;;;;;15.67;11.40;;;8.80;99.90;;;12.04;55.51;98035.41;5063881;28;20051;-47
2023/04/08 07:56:42;;;;;;;18.93;10.87;;;8.80;99.90;;;11.91;55.55;98040.34;5061738;28;20056;-46
2023/04/08 07:59:12;;;;;;;19.03;11.33;;;8.70;99.90;;;11.90;55.67;98036.81;5060608;28;20040;-49
2023/04/08 08:01:40;;;;;;;14.17;10.23;;;8.70;99.90;;;11.97;55.11;98043.19;5062706;28;20040;-46
2023/04/08 08:04:08;;;;;;;16.33;10.97;;;8.80;99.90;;;12.00;55.35;98047.41;5063854;28;20044;-46
2023/04/08 08:06:35;;;;;;;16.87;10.67;;;8.70;99.90;;;12.12;55.24;98055.94;5060588;28;20040;-48
2023/04/08 08:09:03;;;;;;;15.87;10.93;;;8.90;99.90;;;12.20;54.66;98047.97;5060581;28;20433;-45
2023/04/08 08:11:31;;;;;;;16.30;10.20;;;9.00;99.90;;;12.25;54.35;98050.13;5062173;28;20491;-46
2023/04/08 08:13:59;;;;;;;15.17;10.60;;;9.00;99.90;;;12.18;53.88;98045.44;5063335;28;20103;-48
2023/04/08 08:16:30;;;;;;;16.73;10.50;;;8.90;99.90;;;12.24;54.51;98051.97;5062319;28;20048;-50
2023/04/08 08:18:59;;;;;;;12.93;9.97;;;9.00;99.90;;;12.32;54.50;98046.66;5060408;28;20049;-47
2023/04/08 08:21:26;;;;;;;15.20;10.77;;;9.10;99.90;;;12.43;54.13;98055.34;5060212;28;20041;-47
2023/04/08 08:23:55;;;;;;;15.57;10.80;;;9.20;99.90;;;12.53;54.00;98064.91;5061953;28;20044;-49
2023/04/08 08:26:23;;;;;;;14.80;10.30;;;9.30;99.90;;;12.56;53.57;98061.91;5063104;28;20036;-47
2023/04/08 08:28:51;;;;;;;16.10;11.40;;;9.30;99.90;;;12.49;53.62;98060.06;5060440;28;20041;-46
2023/04/08 08:31:18;;;;;;;16.07;10.43;;;9.20;99.90;;;12.49;54.00;98062.75;5059910;28;20041;-46
2023/04/08 08:33:46;;;;;;;15.37;12.37;;;9.20;99.90;;;12.57;54.13;98068.09;5051768;28;20045;-47
2023/04/08 08:36:14;;;;;;;17.07;10.57;;;9.40;99.90;;;12.52;53.61;98057.06;5060111;28;20052;-49
2023/04/08 08:38:41;;;;;;;16.00;11.23;;;9.30;99.90;;;12.49;53.31;98066.22;5063001;28;20040;-48
2023/04/08 08:41:09;;;;;;;15.60;11.27;;;9.20;99.90;;;12.34;53.40;98066.00;5063731;28;20056;-48
2023/04/08 08:43:37;;;;;;;15.90;10.87;;;9.10;99.90;;;12.27;53.81;98072.16;5060593;28;20037;-47
2023/04/08 08:46:10;;;;;;;16.47;10.97;;;9.00;99.90;;;12.28;53.78;98066.66;5058793;28;20051;-46
2023/04/08 08:48:39;;;;;;;17.42;11.32;;;9.10;99.90;;;12.35;53.98;98066.88;5062734;28;20045;-47
2023/04/08 08:51:11;;;;;;;16.13;10.97;;;9.20;99.90;;;12.39;53.62;98071.72;5063600;28;20037;-47
2023/04/08 08:53:43;;;;;;;16.67;11.43;;;9.20;99.90;;;12.44;53.32;98073.88;5058850;28;20067;-49
2023/04/08 08:56:11;;;;;;;16.00;11.60;;;9.30;99.90;;;12.50;53.45;98067.06;5060261;28;20588;-47
2023/04/08 08:58:46;;;;;;;15.02;10.80;;;9.40;99.90;;;12.57;53.37;98076.09;5063219;28;20401;-47
2023/04/08 09:01:39;;;;;;;17.20;10.57;;;9.50;99.90;;;12.63;53.16;98080.78;5063262;28;20059;-49
2023/04/08 09:04:14;;;;;;;15.73;12.47;;;9.50;99.90;;;12.66;52.96;98077.81;5053309;28;20097;-49
2023/04/08 09:06:44;;;;;;;14.30;10.07;;;9.50;99.90;;;12.69;52.34;98079.28;5061803;28;20421;-46
2023/04/08 09:09:12;;;;;;;15.83;11.43;;;9.50;99.90;;;12.64;52.68;98081.63;5063145;28;20036;-49
2023/04/08 09:11:46;;;;;;;13.60;9.93;;;9.60;99.90;;;12.81;52.35;98086.00;5060542;28;20048;-47
2023/04/08 09:14:21;;;;;;;14.63;10.37;;;9.70;99.90;;;12.91;51.99;98085.84;5059560;28;20048;-50
2023/04/08 09:16:50;;;;;;;15.13;10.50;;;9.80;99.90;;;13.07;52.03;98082.38;5050613;28;20517;-48
2023/04/08 09:19:19;;;;;;;13.03;10.47;;;10.00;99.90;;;13.19;51.83;98081.03;5057933;28;20049;-48
2023/04/08 09:22:06;;;;;;;14.30;9.60;;;10.10;99.90;;;13.21;51.78;98081.69;5062812;28;20040;-49
2023/04/08 09:24:35;;;;;;;14.87;10.20;;;10.10;99.90;;;13.30;51.62;98080.72;5061117;28;20414;-47
2023/04/08 09:27:04;;;;;;;17.00;10.00;;;10.20;99.90;;;13.31;50.68;98085.06;5059691;28;20048;-51
2023/04/08 09:29:33;;;;;;;13.33;10.70;;;10.20;99.90;;;13.34;50.09;98083.91;5060648;28;20048;-51
2023/04/08 09:32:04;;;;;;;15.47;10.87;;;10.20;93.20;;;13.34;49.89;98082.06;5063136;28;20056;-52
2023/04/08 09:34:33;;;;;;;12.27;9.53;;;10.20;94.30;;;13.46;49.65;98082.53;5061218;28;20047;-47
2023/04/08 09:37:01;;;;;;;12.20;9.50;;;10.30;92.30;;;13.58;49.59;98085.69;5059588;28;20052;-48
2023/04/08 09:39:29;;;;;;;14.33;10.37;;;10.50;92.50;;;13.72;49.50;98076.13;5060039;28;20045;-46
2023/04/08 09:42:00;;;;;;;13.00;9.43;;;10.60;90.60;;;13.88;49.21;98086.81;5060153;28;20552;-49
2023/04/08 09:44:30;;;;;;;15.43;10.90;;;10.80;86.40;;;14.02;49.18;98090.63;5060418;28;20036;-47
2023/04/08 09:47:11;;;;;;;12.23;9.23;;;10.90;85.10;;;14.09;49.02;98080.88;5059407;28;20052;-47
2023/04/08 09:50:04;;;;;;;11.77;9.60;;;11.00;82.60;;;14.14;48.87;98080.38;5061505;28;20048;-47
2023/04/08 09:52:39;;;;;;;13.47;10.30;;;11.10;78.70;;;14.08;47.40;98079.22;5060278;28;20071;-48
2023/04/08 09:55:11;;;;;;;13.90;10.20;;;10.90;75.20;;;14.07;47.61;98082.88;5037983;28;20041;-49
2023/04/08 09:58:22;;;;;;;12.27;9.60;;;10.80;77.00;;;14.09;48.39;98078.19;5058717;28;20048;-48
2023/04/08 10:00:52;;;;;;;14.17;9.83;;;11.00;76.70;;;14.15;47.52;98082.88;5033572;28;20041;-47
2023/04/08 10:03:39;;;;;;;14.63;10.53;;;11.00;78.10;;;14.11;47.70;98083.38;5057566;28;20033;-49
2023/04/08 10:06:09;;;;;;;13.07;11.10;;;11.00;75.80;;;14.03;47.37;98083.41;5052257;28;20041;-47
2023/04/08 10:08:37;;;;;;;14.33;10.27;;;10.80;76.00;;;13.95;47.63;98076.25;5059612;28;20041;-47
2023/04/08 10:11:05;;;;;;;12.63;10.07;;;10.80;76.70;;;13.95;47.61;98081.59;5061386;28;20409;-48
2023/04/08 10:13:33;;;;;;;14.38;10.52;;;10.70;75.70;;;13.97;47.09;98083.09;5059672;28;20045;-48
2023/04/08 10:16:20;;;;;;;13.47;10.33;;;10.80;74.40;;;13.99;47.34;98080.25;5058175;28;20522;-48
2023/04/08 10:18:51;;;;;;;13.00;10.07;;;10.70;74.20;;;14.08;46.97;98083.75;5061647;28;20120;-49
2023/04/08 10:21:35;;;;;;;13.30;10.17;;;10.90;74.60;;;14.18;47.11;98087.88;5062354;28;20044;-52
2023/04/08 10:24:10;;;;;;;13.97;10.27;;;11.00;72.60;;;14.26;47.14;98081.66;5052240;28;20390;-49